createdAt,value
2023-01-10T00:01:53.940Z,99433.00
2023-01-10T00:04:21.597Z,99431.94
2023-01-10T00:06:49.204Z,99434.06
2023-01-10T00:09:16.810Z,99434.25
2023-01-10T00:12:03.434Z,99441.69
2023-01-10T00:14:33.424Z,99447.22
2023-01-10T00:17:01.068Z,99454.94
2023-01-10T00:19:28.859Z,99450.75
2023-01-10T00:22:12.463Z,99460.53
2023-01-10T00:24:42.250Z,99477.09
2023-01-10T00:27:14.737Z,99478.69
2023-01-10T00:29:42.347Z,99485.28
2023-01-10T00:32:09.940Z,99492.56
2023-01-10T00:34:37.590Z,99497.44
2023-01-10T00:37:05.146Z,99498.47
2023-01-10T00:39:32.769Z,99508.84
2023-01-10T00:42:18.009Z,99510.00
2023-01-10T00:44:47.422Z,99523.91
2023-01-10T00:47:15.092Z,99528.06
2023-01-10T00:49:42.658Z,99542.56
2023-01-10T00:52:10.230Z,99559.84
2023-01-10T00:54:37.773Z,99555.75
2023-01-10T00:57:05.445Z,99566.13
2023-01-10T00:59:32.997Z,99564.59
2023-01-10T01:02:02.079Z,99581.91
2023-01-10T01:04:33.952Z,99579.28
2023-01-10T01:07:02.131Z,99592.69
2023-01-10T01:09:29.983Z,99600.84
2023-01-10T01:11:57.632Z,99614.66
2023-01-10T01:14:25.875Z,99624.88
2023-01-10T01:16:53.456Z,99632.19
2023-01-10T01:19:22.327Z,99646.00
2023-01-10T01:21:49.980Z,99651.13
2023-01-10T01:24:17.581Z,99655.41
2023-01-10T01:26:45.773Z,99655.53
2023-01-10T01:29:13.762Z,99661.06
2023-01-10T01:31:41.361Z,99669.94
2023-01-10T01:34:09.044Z,99669.22
2023-01-10T01:36:38.003Z,99676.53
2023-01-10T01:39:06.167Z,99675.59
2023-01-10T01:42:02.894Z,99683.59
2023-01-10T01:44:32.711Z,99694.22
2023-01-10T01:47:06.149Z,99704.59
2023-01-10T01:49:38.140Z,99707.34
2023-01-10T01:52:11.602Z,99704.72
2023-01-10T01:54:39.404Z,99714.25
2023-01-10T01:57:10.940Z,99719.50
2023-01-10T01:59:41.711Z,99723.34
2023-01-10T02:02:14.434Z,99730.38
2023-01-10T02:04:48.650Z,99730.97
2023-01-10T02:07:18.526Z,99729.97
2023-01-10T02:09:50.652Z,99747.13
2023-01-10T02:12:18.648Z,99744.75
2023-01-10T02:14:49.138Z,99742.25
2023-01-10T02:17:18.017Z,99746.28
2023-01-10T02:19:52.717Z,99749.44
2023-01-10T02:22:49.850Z,99764.13
2023-01-10T02:25:49.529Z,99762.41
2023-01-10T02:28:58.233Z,99763.81
2023-01-10T02:31:42.966Z,99778.38
2023-01-10T02:34:19.778Z,99770.75
2023-01-10T02:36:57.671Z,99769.75
2023-01-10T02:39:30.982Z,99774.84
2023-01-10T02:42:05.643Z,99788.03
2023-01-10T02:44:41.966Z,99786.19
2023-01-10T02:47:10.272Z,99790.41
2023-01-10T02:49:49.586Z,99804.34
2023-01-10T02:52:21.872Z,99804.50
2023-01-10T02:54:51.677Z,99800.47
2023-01-10T02:57:48.494Z,99813.28
2023-01-10T03:00:29.233Z,99808.56
2023-01-10T03:03:10.171Z,99819.72
2023-01-10T03:05:53.259Z,99818.34
2023-01-10T03:08:31.857Z,99825.16
2023-01-10T03:11:02.392Z,99836.91
2023-01-10T03:13:36.326Z,99841.81
2023-01-10T03:16:08.031Z,99845.72
2023-01-10T03:18:41.677Z,99840.75
2023-01-10T03:21:12.349Z,99861.31
2023-01-10T03:23:40.666Z,99866.06
2023-01-10T03:26:11.030Z,99881.66
2023-01-10T03:28:46.002Z,99886.59
2023-01-10T03:31:17.867Z,99893.34
2023-01-10T03:33:46.117Z,99905.59
2023-01-10T03:36:26.764Z,99908.78
2023-01-10T03:38:56.408Z,99913.97
2023-01-10T03:41:35.011Z,99913.63
2023-01-10T03:44:30.966Z,99919.91
2023-01-10T03:47:02.529Z,99928.22
2023-01-10T03:49:31.390Z,99929.56
2023-01-10T03:52:01.734Z,99931.97
2023-01-10T03:54:29.915Z,99946.38
2023-01-10T03:56:57.572Z,99952.75
2023-01-10T03:59:27.299Z,99957.06
2023-01-10T04:01:56.165Z,99965.75
2023-01-10T04:04:24.124Z,99970.19
2023-01-10T04:06:51.714Z,99965.75
2023-01-10T04:09:20.755Z,99974.66
2023-01-10T04:11:48.340Z,99976.59
2023-01-10T04:14:15.912Z,99977.72
2023-01-10T04:16:43.468Z,99983.81
2023-01-10T04:19:11.089Z,99983.28
2023-01-10T04:21:38.697Z,99989.88
2023-01-10T04:24:06.913Z,99985.31
2023-01-10T04:26:35.839Z,99977.19
2023-01-10T04:29:03.558Z,99980.25
2023-01-10T04:31:31.231Z,99984.94
2023-01-10T04:33:58.875Z,99991.00
2023-01-10T04:36:27.496Z,99996.13
2023-01-10T04:38:55.469Z,100012.00
2023-01-10T04:41:23.128Z,100003.75
2023-01-10T04:43:52.235Z,100022.06
2023-01-10T04:46:19.830Z,100021.75
2023-01-10T04:48:47.614Z,100019.97
2023-01-10T04:51:15.562Z,100032.78
2023-01-10T04:53:43.140Z,100031.53
2023-01-10T04:56:17.143Z,100026.84
2023-01-10T04:58:44.850Z,100027.53
2023-01-10T05:01:15.229Z,100038.94
2023-01-10T05:03:42.988Z,100040.09
2023-01-10T05:06:11.126Z,100035.19
2023-01-10T05:08:38.708Z,100049.16
2023-01-10T05:11:06.292Z,100055.06
2023-01-10T05:13:34.020Z,100057.13
2023-01-10T05:16:01.934Z,100051.47
2023-01-10T05:18:31.113Z,100045.72
2023-01-10T05:21:01.466Z,100054.25
2023-01-10T05:23:29.507Z,100046.06
2023-01-10T05:25:57.220Z,100044.66
2023-01-10T05:28:25.202Z,100057.09
2023-01-10T05:30:52.854Z,100056.88
2023-01-10T05:33:20.497Z,100053.88
2023-01-10T05:35:49.389Z,100064.69
2023-01-10T05:38:16.971Z,100067.53
2023-01-10T05:40:44.535Z,100066.28
2023-01-10T05:43:12.673Z,100070.22
2023-01-10T05:45:40.792Z,100076.63
2023-01-10T05:48:08.401Z,100074.97
2023-01-10T05:50:36.027Z,100076.03
2023-01-10T05:53:06.052Z,100081.47
2023-01-10T05:55:34.082Z,100085.13
2023-01-10T05:58:01.992Z,100092.38
2023-01-10T06:00:29.772Z,100084.31
2023-01-10T06:02:57.873Z,100082.31
2023-01-10T06:05:25.614Z,100090.44
2023-01-10T06:07:53.216Z,100095.63
2023-01-10T06:10:22.156Z,100089.00
2023-01-10T06:12:50.058Z,100091.97
2023-01-10T06:15:17.915Z,100093.41
2023-01-10T06:17:45.718Z,100101.97
2023-01-10T06:20:14.453Z,100093.97
2023-01-10T06:22:42.986Z,100108.38
2023-01-10T06:25:12.235Z,100109.47
2023-01-10T06:27:41.736Z,100115.91
2023-01-10T06:30:11.245Z,100129.88
2023-01-10T06:32:39.210Z,100132.75
2023-01-10T06:35:07.422Z,100156.00
2023-01-10T06:37:35.183Z,100166.88
2023-01-10T06:40:02.783Z,100177.84
2023-01-10T06:42:30.381Z,100177.72
2023-01-10T06:44:59.278Z,100183.31
2023-01-10T06:47:26.921Z,100187.25
2023-01-10T06:49:54.877Z,100186.28
2023-01-10T06:52:22.615Z,100173.03
2023-01-10T06:54:53.017Z,100176.28
2023-01-10T06:57:20.786Z,100190.53
2023-01-10T06:59:48.410Z,100205.69
2023-01-10T07:02:17.438Z,100218.09
2023-01-10T07:04:45.083Z,100221.78
2023-01-10T07:07:12.711Z,100218.59
2023-01-10T07:09:40.335Z,100215.97
2023-01-10T07:12:08.126Z,100235.53
2023-01-10T07:14:35.786Z,100250.34
2023-01-10T07:17:03.352Z,100253.28
2023-01-10T07:19:32.278Z,100249.09
2023-01-10T07:21:59.943Z,100240.94
2023-01-10T07:24:27.548Z,100246.91
2023-01-10T07:26:56.018Z,100248.03
2023-01-10T07:29:23.756Z,100260.28
2023-01-10T07:31:52.622Z,100270.22
2023-01-10T07:34:20.247Z,100271.16
2023-01-10T07:36:49.179Z,100258.94
2023-01-10T07:39:16.782Z,100273.75
2023-01-10T07:41:44.578Z,100261.84
2023-01-10T07:44:12.271Z,100272.09
2023-01-10T07:46:39.843Z,100264.69
2023-01-10T07:49:07.465Z,100276.66
2023-01-10T07:51:35.088Z,100273.69
2023-01-10T07:54:04.421Z,100278.44
2023-01-10T07:56:32.097Z,100280.84
2023-01-10T07:59:01.146Z,100288.28
2023-01-10T08:01:29.563Z,100279.50
2023-01-10T08:03:58.215Z,100280.75
2023-01-10T08:06:25.964Z,100282.41
2023-01-10T08:08:53.598Z,100284.91
2023-01-10T08:11:22.616Z,100282.91
2023-01-10T08:13:50.475Z,100294.91
2023-01-10T08:16:20.779Z,100297.03
2023-01-10T08:18:48.426Z,100284.59
2023-01-10T08:21:16.077Z,100282.75
2023-01-10T08:23:43.681Z,100294.94
2023-01-10T08:26:11.392Z,100292.16
2023-01-10T08:28:40.430Z,100306.13
2023-01-10T08:31:09.114Z,100312.81
2023-01-10T08:33:38.825Z,100310.34
2023-01-10T08:36:06.877Z,100312.03
2023-01-10T08:38:34.583Z,100311.31
2023-01-10T08:41:02.202Z,100314.66
2023-01-10T08:43:29.906Z,100313.50
2023-01-10T08:45:58.808Z,100305.88
2023-01-10T08:48:26.502Z,100314.13
2023-01-10T08:50:54.115Z,100313.19
2023-01-10T08:53:21.712Z,100315.72
2023-01-10T08:55:50.223Z,100320.63
2023-01-10T08:58:17.890Z,100323.25
2023-01-10T09:00:46.007Z,100330.50
2023-01-10T09:03:15.056Z,100328.06
2023-01-10T09:05:42.741Z,100335.44
2023-01-10T09:08:10.963Z,100334.13
2023-01-10T09:10:38.746Z,100333.06
2023-01-10T09:13:06.511Z,100331.91
2023-01-10T09:15:36.975Z,100338.59
2023-01-10T09:18:06.808Z,100351.66
2023-01-10T09:20:37.960Z,100358.09
2023-01-10T09:23:06.745Z,100349.88
2023-01-10T09:25:34.675Z,100363.13
2023-01-10T09:28:03.927Z,100367.72
2023-01-10T09:30:31.809Z,100371.31
2023-01-10T09:33:00.480Z,100375.94
2023-01-10T09:35:30.153Z,100372.00
2023-01-10T09:38:00.984Z,100387.38
2023-01-10T09:40:40.917Z,100389.78
2023-01-10T09:43:17.689Z,100392.00
2023-01-10T09:45:54.144Z,100397.59
2023-01-10T09:48:27.840Z,100386.09
2023-01-10T09:51:11.927Z,100396.38
2023-01-10T09:53:44.723Z,100388.81
2023-01-10T09:56:15.472Z,100394.34
2023-01-10T09:58:45.042Z,100395.22
2023-01-10T10:01:17.837Z,100395.09
2023-01-10T10:03:53.263Z,100393.47
2023-01-10T10:06:22.974Z,100395.03
2023-01-10T10:08:53.658Z,100402.97
2023-01-10T10:11:43.464Z,100396.88
2023-01-10T10:14:22.101Z,100387.63
2023-01-10T10:17:02.943Z,100384.19
2023-01-10T10:19:41.712Z,100384.78
2023-01-10T10:22:19.832Z,100373.50
2023-01-10T10:25:02.181Z,100374.88
2023-01-10T10:27:37.200Z,100368.41
2023-01-10T10:30:17.790Z,100374.72
2023-01-10T10:33:04.698Z,100371.16
2023-01-10T10:35:37.072Z,100364.03
2023-01-10T10:38:10.010Z,100369.78
2023-01-10T10:40:44.143Z,100368.66
2023-01-10T10:43:21.057Z,100362.53
2023-01-10T10:45:53.952Z,100367.47
2023-01-10T10:48:26.857Z,100357.59
2023-01-10T10:51:06.570Z,100360.63
2023-01-10T10:53:35.624Z,100366.59
2023-01-10T10:56:07.531Z,100362.72
2023-01-10T10:58:35.219Z,100350.94
2023-01-10T11:01:02.976Z,100348.00
2023-01-10T11:03:39.740Z,100348.31
2023-01-10T11:06:08.822Z,100344.09
2023-01-10T11:08:39.092Z,100342.50
2023-01-10T11:11:18.907Z,100343.88
2023-01-10T11:13:50.983Z,100346.81
2023-01-10T11:16:27.841Z,100342.22
2023-01-10T11:19:22.342Z,100337.25
2023-01-10T11:21:54.245Z,100345.44
2023-01-10T11:24:26.918Z,100348.06
2023-01-10T11:26:57.655Z,100363.19
2023-01-10T11:29:27.772Z,100353.09
2023-01-10T11:31:57.221Z,100367.78
2023-01-10T11:34:29.862Z,100362.50
2023-01-10T11:37:00.603Z,100364.31
2023-01-10T11:39:29.231Z,100374.44
2023-01-10T11:41:59.892Z,100372.34
2023-01-10T11:44:29.398Z,100366.94
2023-01-10T11:46:59.629Z,100360.41
2023-01-10T11:49:31.835Z,100364.16
2023-01-10T11:52:04.420Z,100366.34
2023-01-10T11:54:33.784Z,100369.34
2023-01-10T11:57:05.168Z,100373.78
2023-01-10T11:59:33.724Z,100371.97
2023-01-10T12:02:05.735Z,100361.88
2023-01-10T12:04:40.617Z,100357.72
2023-01-10T12:07:11.867Z,100354.88
2023-01-10T12:09:43.416Z,100351.22
2023-01-10T12:12:21.326Z,100347.75
2023-01-10T12:14:50.440Z,100357.44
2023-01-10T12:17:27.455Z,100346.94
2023-01-10T12:20:00.502Z,100345.69
2023-01-10T12:22:32.913Z,100339.88
2023-01-10T12:25:01.877Z,100339.16
2023-01-10T12:27:31.789Z,100326.38
2023-01-10T12:30:05.330Z,100335.97
2023-01-10T12:32:39.139Z,100328.75
2023-01-10T12:35:14.960Z,100319.72
2023-01-10T12:37:48.665Z,100325.03
2023-01-10T12:40:20.602Z,100326.53
2023-01-10T12:43:16.688Z,100331.69
2023-01-10T12:45:50.119Z,100333.47
2023-01-10T12:48:25.407Z,100338.44
2023-01-10T12:50:58.627Z,100337.03
2023-01-10T12:53:32.731Z,100330.38
2023-01-10T12:56:04.753Z,100328.47
2023-01-10T12:58:43.097Z,100331.41
2023-01-10T13:01:15.437Z,100320.44
2023-01-10T13:03:45.812Z,100331.28
2023-01-10T13:06:23.572Z,100320.88
2023-01-10T13:08:52.453Z,100318.91
2023-01-10T13:11:23.398Z,100320.59
2023-01-10T13:13:58.018Z,100328.22
2023-01-10T13:16:34.085Z,100321.16
2023-01-10T13:19:05.124Z,100329.06
2023-01-10T13:21:34.485Z,100326.00
2023-01-10T13:24:04.432Z,100332.50
2023-01-10T13:26:52.239Z,100333.06
2023-01-10T13:29:23.545Z,100328.34
2023-01-10T13:31:57.393Z,100333.06
2023-01-10T13:34:27.803Z,100327.53
2023-01-10T13:36:59.218Z,100333.50
2023-01-10T13:39:32.960Z,100327.66
2023-01-10T13:42:48.727Z,100317.53
2023-01-10T13:45:21.649Z,100321.00
2023-01-10T13:48:04.838Z,100311.13
2023-01-10T13:51:07.853Z,100316.41
2023-01-10T13:54:06.205Z,100318.75
2023-01-10T13:56:37.079Z,100312.91
2023-01-10T13:59:29.157Z,100311.66
2023-01-10T14:02:18.496Z,100311.16
2023-01-10T14:04:51.063Z,100304.91
2023-01-10T14:07:25.063Z,100310.47
2023-01-10T14:09:59.039Z,100304.50
2023-01-10T14:12:33.928Z,100296.44
2023-01-10T14:15:06.026Z,100296.44
2023-01-10T14:17:37.419Z,100290.38
2023-01-10T14:20:24.688Z,100284.81
2023-01-10T14:23:01.066Z,100281.88
2023-01-10T14:25:29.899Z,100267.72
2023-01-10T14:27:58.994Z,100266.72
2023-01-10T14:30:29.766Z,100267.81
2023-01-10T14:33:02.848Z,100260.06
2023-01-10T14:35:35.371Z,100265.66
2023-01-10T14:38:04.985Z,100263.59
2023-01-10T14:40:40.788Z,100264.13
2023-01-10T14:43:13.039Z,100259.13
2023-01-10T14:45:49.349Z,100259.69
2023-01-10T14:48:31.021Z,100257.75
2023-01-10T14:51:20.764Z,100246.78
2023-01-10T14:53:49.442Z,100246.78
2023-01-10T14:56:22.045Z,100241.78
2023-01-10T14:58:49.684Z,100246.38
2023-01-10T15:01:23.823Z,100248.47
2023-01-10T15:03:53.523Z,100250.25
2023-01-10T15:06:21.147Z,100249.84
2023-01-10T15:08:57.373Z,100237.50
2023-01-10T15:11:27.711Z,100247.63
2023-01-10T15:14:00.059Z,100242.09
2023-01-10T15:16:29.765Z,100246.13
2023-01-10T15:18:58.966Z,100238.59
2023-01-10T15:21:26.807Z,100239.56
2023-01-10T15:23:54.382Z,100235.28
2023-01-10T15:26:30.203Z,100237.06
2023-01-10T15:29:10.464Z,100232.34
2023-01-10T15:31:39.113Z,100222.38
2023-01-10T15:34:15.924Z,100224.84
2023-01-10T15:36:47.253Z,100224.28
2023-01-10T15:39:21.031Z,100227.50
2023-01-10T15:41:49.079Z,100215.75
2023-01-10T15:44:24.876Z,100205.50
2023-01-10T15:46:56.801Z,100193.69
2023-01-10T15:49:26.440Z,100195.06
2023-01-10T15:51:54.149Z,100191.47
2023-01-10T15:54:34.187Z,100194.53
2023-01-10T15:57:08.041Z,100198.13
2023-01-10T15:59:39.637Z,100193.00
2023-01-10T16:02:22.611Z,100178.56
2023-01-10T16:04:54.375Z,100170.13
2023-01-10T16:07:26.837Z,100177.75
2023-01-10T16:09:58.800Z,100174.72
2023-01-10T16:12:59.400Z,100174.69
2023-01-10T16:15:29.952Z,100172.50
2023-01-10T16:17:58.323Z,100171.66
2023-01-10T16:20:31.129Z,100163.75
2023-01-10T16:23:00.975Z,100156.00
2023-01-10T16:25:32.667Z,100155.84
2023-01-10T16:28:00.934Z,100154.75
2023-01-10T16:30:30.215Z,100159.47
2023-01-10T16:32:59.247Z,100152.22
2023-01-10T16:35:28.230Z,100158.34
2023-01-10T16:37:57.956Z,100155.44
2023-01-10T16:40:28.705Z,100150.88
2023-01-10T16:43:14.239Z,100149.50
2023-01-10T16:45:42.008Z,100158.91
2023-01-10T16:48:10.517Z,100161.13
2023-01-10T16:50:41.041Z,100154.47
2023-01-10T16:53:10.385Z,100148.09
2023-01-10T16:55:41.949Z,100141.59
2023-01-10T16:58:10.081Z,100140.47
2023-01-10T17:00:38.324Z,100140.91
2023-01-10T17:03:10.102Z,100133.13
2023-01-10T17:05:39.309Z,100130.09
2023-01-10T17:08:07.364Z,100123.72
2023-01-10T17:10:36.520Z,100122.03
2023-01-10T17:13:05.821Z,100123.69
2023-01-10T17:15:34.884Z,100119.41
2023-01-10T17:18:02.505Z,100111.50
2023-01-10T17:20:30.689Z,100110.84
2023-01-10T17:22:59.624Z,100113.44
2023-01-10T17:25:27.268Z,100120.38
2023-01-10T17:27:54.865Z,100118.44
2023-01-10T17:30:22.531Z,100113.75
2023-01-10T17:32:50.112Z,100119.81
2023-01-10T17:35:18.315Z,100108.19
2023-01-10T17:37:49.660Z,100104.03
2023-01-10T17:40:18.913Z,100100.56
2023-01-10T17:42:46.935Z,100097.09
2023-01-10T17:45:15.077Z,100094.19
2023-01-10T17:47:42.631Z,100084.06
2023-01-10T17:50:10.534Z,100087.13
2023-01-10T17:52:38.210Z,100082.53
2023-01-10T17:55:07.458Z,100073.56
2023-01-10T17:57:39.159Z,100066.63
2023-01-10T18:00:07.909Z,100062.75
2023-01-10T18:02:35.594Z,100064.84
2023-01-10T18:05:03.246Z,100062.88
2023-01-10T18:07:30.994Z,100054.88
2023-01-10T18:09:58.890Z,100054.69
2023-01-10T18:12:26.454Z,100053.75
2023-01-10T18:14:55.504Z,100049.88
2023-01-10T18:17:23.065Z,100048.06
2023-01-10T18:19:50.730Z,100039.19
2023-01-10T18:22:35.842Z,100035.16
2023-01-10T18:25:03.647Z,100037.28
2023-01-10T18:27:31.226Z,100028.66
2023-01-10T18:30:00.313Z,100023.13
2023-01-10T18:32:27.989Z,100030.91
2023-01-10T18:34:55.959Z,100025.22
2023-01-10T18:37:23.499Z,100028.56
2023-01-10T18:39:51.192Z,100032.69
2023-01-10T18:42:18.941Z,100035.06
2023-01-10T18:44:46.560Z,100043.06
2023-01-10T18:47:15.660Z,100029.22
2023-01-10T18:49:43.269Z,100036.16
2023-01-10T18:52:10.907Z,100030.75
2023-01-10T18:54:38.466Z,100025.91
2023-01-10T18:57:06.016Z,100027.81
2023-01-10T18:59:33.667Z,100031.41
2023-01-10T19:02:01.315Z,100030.34
2023-01-10T19:04:30.447Z,100021.06
2023-01-10T19:06:58.198Z,100013.69
2023-01-10T19:09:25.862Z,100009.25
2023-01-10T19:11:53.522Z,100015.50
2023-01-10T19:14:21.351Z,100014.53
2023-01-10T19:16:49.081Z,100028.22
2023-01-10T19:19:16.899Z,100019.91
2023-01-10T19:21:46.011Z,100013.91
2023-01-10T19:24:22.094Z,100006.75
2023-01-10T19:26:50.008Z,100005.53
2023-01-10T19:29:18.304Z,100012.31
2023-01-10T19:31:48.161Z,100012.06
2023-01-10T19:34:16.031Z,100005.97
2023-01-10T19:36:45.427Z,100005.78
2023-01-10T19:39:15.363Z,100005.69
2023-01-10T19:41:43.551Z,100011.31
2023-01-10T19:44:14.271Z,100005.06
2023-01-10T19:46:44.013Z,100009.66
2023-01-10T19:49:17.641Z,99997.19
2023-01-10T19:51:47.575Z,100001.38
2023-01-10T19:54:16.671Z,99994.03
2023-01-10T19:56:44.657Z,99996.50
2023-01-10T19:59:13.694Z,100004.97
2023-01-10T20:01:42.014Z,99993.72
2023-01-10T20:04:09.864Z,99998.19
2023-01-10T20:06:39.327Z,99998.72
2023-01-10T20:09:07.569Z,99985.56
2023-01-10T20:11:38.327Z,99994.06
2023-01-10T20:14:06.715Z,99988.50
2023-01-10T20:16:34.969Z,99981.97
2023-01-10T20:19:02.908Z,99984.06
2023-01-10T20:21:30.604Z,99975.63
2023-01-10T20:23:58.421Z,99973.25
2023-01-10T20:26:26.962Z,99967.25
2023-01-10T20:28:58.869Z,99976.75
2023-01-10T20:31:26.631Z,99972.72
2023-01-10T20:33:54.686Z,99964.25
2023-01-10T20:36:24.299Z,99963.53
2023-01-10T20:38:52.310Z,99961.88
2023-01-10T20:41:21.719Z,99956.69
2023-01-10T20:43:49.537Z,99969.84
2023-01-10T20:46:20.292Z,99963.81
2023-01-10T20:48:48.861Z,99963.00
2023-01-10T20:51:19.302Z,99969.72
2023-01-10T20:53:47.099Z,99959.94
2023-01-10T20:56:17.191Z,99956.28
2023-01-10T20:58:45.245Z,99960.88
2023-01-10T21:01:24.834Z,99953.66
2023-01-10T21:03:57.962Z,99957.44
2023-01-10T21:06:25.833Z,99951.78
2023-01-10T21:08:53.518Z,99949.00
2023-01-10T21:11:21.976Z,99960.34
2023-01-10T21:13:49.793Z,99952.63
2023-01-10T21:16:20.742Z,99950.13
2023-01-10T21:18:48.970Z,99942.25
2023-01-10T21:21:19.455Z,99947.66
2023-01-10T21:23:47.521Z,99945.72
2023-01-10T21:26:16.660Z,99947.69
2023-01-10T21:28:47.271Z,99947.28
2023-01-10T21:31:16.266Z,99953.25
2023-01-10T21:33:44.597Z,99932.91
2023-01-10T21:36:13.423Z,99943.00
2023-01-10T21:38:43.732Z,99936.63
2023-01-10T21:41:14.599Z,99936.34
2023-01-10T21:43:44.463Z,99936.03
2023-01-10T21:46:12.901Z,99923.47
2023-01-10T21:48:40.712Z,99930.25
2023-01-10T21:51:08.299Z,99925.41
2023-01-10T21:53:36.898Z,99930.66
2023-01-10T21:56:06.271Z,99912.56
2023-01-10T21:58:34.079Z,99919.75
2023-01-10T22:01:01.722Z,99920.44
2023-01-10T22:03:31.215Z,99912.56
2023-01-10T22:05:58.803Z,99906.03
2023-01-10T22:08:26.503Z,99905.88
2023-01-10T22:10:54.193Z,99907.31
2023-01-10T22:13:26.009Z,99904.94
2023-01-10T22:15:58.384Z,99901.50
2023-01-10T22:18:26.172Z,99900.81
2023-01-10T22:20:55.649Z,99897.47
2023-01-10T22:23:24.106Z,99900.09
2023-01-10T22:25:59.444Z,99886.94
2023-01-10T22:28:28.573Z,99882.81
2023-01-10T22:30:56.660Z,99891.13
2023-01-10T22:33:25.173Z,99892.09
2023-01-10T22:35:52.764Z,99885.31
2023-01-10T22:38:20.719Z,99889.31
2023-01-10T22:40:48.314Z,99875.59
2023-01-10T22:43:15.917Z,99875.22
2023-01-10T22:45:44.953Z,99882.97
2023-01-10T22:48:12.511Z,99875.31
2023-01-10T22:50:40.526Z,99879.50
2023-01-10T22:53:08.122Z,99883.63
2023-01-10T22:55:35.693Z,99870.78
2023-01-10T22:58:03.330Z,99876.03
2023-01-10T23:00:31.130Z,99863.19
2023-01-10T23:03:00.044Z,99870.66
2023-01-10T23:05:27.626Z,99879.50
2023-01-10T23:07:55.421Z,99867.19
2023-01-10T23:10:30.256Z,99868.72
2023-01-10T23:12:59.657Z,99867.44
2023-01-10T23:15:27.326Z,99865.38
2023-01-10T23:17:55.124Z,99862.59
2023-01-10T23:20:24.191Z,99858.19
2023-01-10T23:22:51.749Z,99856.53
2023-01-10T23:25:19.290Z,99861.09
2023-01-10T23:27:46.847Z,99855.41
2023-01-10T23:30:14.848Z,99855.44
2023-01-10T23:32:42.423Z,99851.97
2023-01-10T23:35:10.767Z,99855.41
2023-01-10T23:37:39.675Z,99848.63
2023-01-10T23:40:08.276Z,99850.72
2023-01-10T23:42:35.847Z,99845.03
2023-01-10T23:45:03.455Z,99843.22
2023-01-10T23:47:30.991Z,99829.34
2023-01-10T23:49:58.534Z,99826.03
2023-01-10T23:52:26.152Z,99818.81
2023-01-10T23:54:55.219Z,99820.44
2023-01-10T23:57:22.872Z,99821.16
2023-01-10T23:59:50.414Z,99820.50
